Time;durP1;ratioP1;P1;durP2;ratioP2;P2;SDS_P1;SDS_P2;PMS_P1;PMS_P2;Temp;Humidity;BMP_temperature;BMP_pressure;BME280_temperature;BME280_humidity;BME280_pressure;Samples;Min_cycle;Max_cycle;Signal;HPM_P1;HPM_P2
2023/09/03 00:00:03;;;;;;;8.98;7.25;;;;;;;;;;5073238;28;20036;-76
2023/09/03 00:02:55;;;;;;;11.40;7.30;;;;;;;;;;5072666;28;20478;-75
2023/09/03 00:05:49;;;;;;;8.82;7.22;;;;;;;;;;5073511;28;20044;-76
2023/09/03 00:08:34;;;;;;;11.90;7.40;;;;;;;;;;5080006;28;20493;-76
2023/09/03 00:11:20;;;;;;;8.77;7.43;;;;;;;;;;5073218;28;20036;-77
2023/09/03 00:14:06;;;;;;;9.13;7.43;;;;;;;;;;5074282;28;20053;-76
2023/09/03 00:16:51;;;;;;;9.60;7.47;;;;;;;;;;5073410;28;20041;-75
2023/09/03 00:19:37;;;;;;;11.93;7.57;;;;;;;;;;5072995;28;20049;-76
2023/09/03 00:22:22;;;;;;;9.02;7.72;;;;;;;;;;5073177;28;20040;-76
2023/09/03 00:25:09;;;;;;;12.90;8.45;;;;;;;;;;5073367;28;20044;-75
2023/09/03 00:27:54;;;;;;;13.93;8.90;;;;;;;;;;5073031;28;20053;-76
2023/09/03 00:30:39;;;;;;;10.93;8.05;;;;;;;;;;5068084;28;20041;-76
2023/09/03 00:33:25;;;;;;;10.60;8.50;;;;;;;;;;5076672;28;20040;-76
2023/09/03 00:36:13;;;;;;;14.23;8.35;;;;;;;;;;5076284;28;20044;-76
2023/09/03 00:38:58;;;;;;;13.98;8.70;;;;;;;;;;5068047;28;20398;-75
2023/09/03 00:41:43;;;;;;;10.73;8.07;;;;;;;;;;5076519;28;20045;-75
2023/09/03 00:44:29;;;;;;;12.13;8.90;;;;;;;;;;5068131;28;20481;-76
2023/09/03 00:47:16;;;;;;;13.43;9.00;;;;;;;;;;5076256;28;20045;-75
2023/09/03 00:50:03;;;;;;;12.52;8.40;;;;;;;;;;5067898;28;20044;-76
2023/09/03 00:52:48;;;;;;;10.98;9.32;;;;;;;;;;5068415;28;20033;-76
2023/09/03 00:55:34;;;;;;;12.00;9.25;;;;;;;;;;5067729;28;20040;-75
2023/09/03 00:58:20;;;;;;;16.30;9.18;;;;;;;;;;5076026;28;20036;-76
2023/09/03 01:01:07;;;;;;;15.38;9.38;;;;;;;;;;5076245;28;20040;-76
2023/09/03 01:03:56;;;;;;;14.93;9.48;;;;;;;;;;5076484;28;20045;-75
2023/09/03 01:06:41;;;;;;;12.30;9.23;;;;;;;;;;5067675;28;20070;-75
2023/09/03 01:09:27;;;;;;;14.75;8.60;;;;;;;;;;5067521;28;20044;-75
2023/09/03 01:12:20;;;;;;;12.80;8.70;;;;;;;;;;5066638;28;20040;-76
2023/09/03 01:15:17;;;;;;;11.48;8.48;;;;;;;;;;5076426;28;20040;-76
2023/09/03 01:18:19;;;;;;;12.15;8.27;;;;;;;;;;5062238;28;20044;-75
2023/09/03 01:21:26;;;;;;;10.02;8.18;;;;;;;;;;5067596;28;20044;-76
2023/09/03 01:24:20;;;;;;;8.77;7.93;;;;;;;;;;5076018;28;20048;-75
2023/09/03 01:27:29;;;;;;;10.48;8.60;;;;;;;;;;5067208;28;20044;-76
2023/09/03 01:30:15;;;;;;;9.95;8.20;;;;;;;;;;5076248;28;20048;-76
2023/09/03 01:33:01;;;;;;;11.50;8.60;;;;;;;;;;5067352;28;20040;-76
2023/09/03 01:35:48;;;;;;;10.32;8.88;;;;;;;;;;5067209;28;20048;-75
2023/09/03 01:38:33;;;;;;;11.57;9.93;;;;;;;;;;5075108;28;20036;-76
2023/09/03 01:41:19;;;;;;;12.57;8.80;;;;;;;;;;5075109;28;20048;-77
2023/09/03 01:44:08;;;;;;;10.18;9.07;;;;;;;;;;5070244;28;20049;-76
2023/09/03 01:47:18;;;;;;;10.10;8.65;;;;;;;;;;5075616;28;20509;-76
2023/09/03 01:50:17;;;;;;;12.32;9.48;;;;;;;;;;5075574;28;20037;-76
2023/09/03 01:53:27;;;;;;;9.63;8.63;;;;;;;;;;5075437;28;20045;-76
2023/09/03 01:56:14;;;;;;;9.85;8.68;;;;;;;;;;5067316;28;20036;-77
2023/09/03 01:59:06;;;;;;;9.90;8.25;;;;;;;;;;5052659;28;20052;-77
2023/09/03 02:01:52;;;;;;;12.13;8.93;;;;;;;;;;5067624;28;20045;-77
2023/09/03 02:04:37;;;;;;;14.27;11.13;;;;;;;;;;5070103;28;20049;-77
2023/09/03 02:07:23;;;;;;;11.07;9.07;;;;;;;;;;5068983;28;20052;-76
2023/09/03 02:10:10;;;;;;;11.02;8.95;;;;;;;;;;5075113;28;20041;-77
2023/09/03 02:12:56;;;;;;;11.60;8.60;;;;;;;;;;5064132;28;20485;-76
2023/09/03 02:15:41;;;;;;;9.52;8.52;;;;;;;;;;5074721;28;20044;-77
2023/09/03 02:18:27;;;;;;;10.07;8.43;;;;;;;;;;5074564;28;20040;-76
2023/09/03 02:21:13;;;;;;;9.88;8.48;;;;;;;;;;5066186;28;20040;-76
2023/09/03 02:23:58;;;;;;;10.90;9.15;;;;;;;;;;5081214;28;20044;-76
2023/09/03 02:26:45;;;;;;;11.82;9.13;;;;;;;;;;5074526;28;20485;-76
2023/09/03 02:29:30;;;;;;;10.77;9.48;;;;;;;;;;5074408;28;20048;-76
2023/09/03 02:32:16;;;;;;;13.13;8.98;;;;;;;;;;5081161;28;20048;-76
2023/09/03 02:35:03;;;;;;;11.40;9.02;;;;;;;;;;5065844;28;20278;-76
2023/09/03 02:37:48;;;;;;;13.48;8.90;;;;;;;;;;5073214;28;20398;-75
2023/09/03 02:40:34;;;;;;;10.05;7.95;;;;;;;;;;5066161;28;20490;-76
2023/09/03 02:43:20;;;;;;;10.10;8.57;;;;;;;;;;5074051;28;20044;-76
2023/09/03 02:46:05;;;;;;;14.50;8.10;;;;;;;;;;5051929;28;20397;-76
2023/09/03 02:48:51;;;;;;;10.30;7.63;;;;;;;;;;5074262;28;20048;-76
2023/09/03 02:51:40;;;;;;;16.67;12.70;;;;;;;;;;5065373;28;20040;-76
2023/09/03 02:54:25;;;;;;;9.63;8.43;;;;;;;;;;5065990;28;20037;-76
2023/09/03 02:57:10;;;;;;;11.63;8.23;;;;;;;;;;5073775;28;20052;-75
2023/09/03 02:59:56;;;;;;;11.73;8.60;;;;;;;;;;5073451;28;20040;-75
2023/09/03 03:02:41;;;;;;;11.85;8.38;;;;;;;;;;5065794;28;20502;-75
2023/09/03 03:05:26;;;;;;;11.35;8.50;;;;;;;;;;5073802;28;20041;-76
2023/09/03 03:08:12;;;;;;;10.55;9.00;;;;;;;;;;5074121;28;20052;-76
2023/09/03 03:11:11;;;;;;;9.75;8.32;;;;;;;;;;5073868;28;20036;-77
2023/09/03 03:14:00;;;;;;;11.38;8.63;;;;;;;;;;5059512;28;20490;-76
2023/09/03 03:16:49;;;;;;;11.43;8.88;;;;;;;;;;5065194;28;20036;-76
2023/09/03 03:19:36;;;;;;;11.15;9.10;;;;;;;;;;5065460;28;20041;-76
2023/09/03 03:22:21;;;;;;;13.55;9.48;;;;;;;;;;5065150;28;20080;-76
2023/09/03 03:25:07;;;;;;;11.27;8.63;;;;;;;;;;5065052;28;20040;-76
2023/09/03 03:27:53;;;;;;;15.32;9.68;;;;;;;;;;5065456;28;20040;-75
2023/09/03 03:30:38;;;;;;;11.27;8.77;;;;;;;;;;5074436;28;20037;-76
2023/09/03 03:33:26;;;;;;;12.52;9.10;;;;;;;;;;5064354;28;20045;-76
2023/09/03 03:36:16;;;;;;;16.25;8.82;;;;;;;;;;5065109;28;20394;-75
2023/09/03 03:39:02;;;;;;;10.20;9.00;;;;;;;;;;5064926;28;20489;-76
2023/09/03 03:41:48;;;;;;;9.77;8.48;;;;;;;;;;5073930;28;20041;-76
2023/09/03 03:44:36;;;;;;;12.35;8.98;;;;;;;;;;5080431;28;20045;-76
2023/09/03 03:47:22;;;;;;;10.52;8.90;;;;;;;;;;5065100;28;20044;-77
2023/09/03 03:50:08;;;;;;;11.25;9.00;;;;;;;;;;5079358;28;20048;-76
2023/09/03 03:52:55;;;;;;;11.02;8.27;;;;;;;;;;5065024;28;20052;-75
2023/09/03 03:55:41;;;;;;;9.60;8.60;;;;;;;;;;5073338;28;20049;-77
2023/09/03 03:58:29;;;;;;;10.43;8.63;;;;;;;;;;5065070;28;20037;-76
2023/09/03 04:01:15;;;;;;;9.77;8.20;;;;;;;;;;5073250;28;20032;-76
2023/09/03 04:04:00;;;;;;;19.52;9.68;;;;;;;;;;5067493;28;20397;-76
2023/09/03 04:06:46;;;;;;;11.85;9.10;;;;;;;;;;5076793;28;20040;-75
2023/09/03 04:09:31;;;;;;;12.10;9.10;;;;;;;;;;5068948;28;20045;-76
2023/09/03 04:12:16;;;;;;;14.55;9.52;;;;;;;;;;5076791;28;20044;-75
2023/09/03 04:15:01;;;;;;;28.75;18.70;;;;;;;;;;5068526;28;20032;-76
2023/09/03 04:17:47;;;;;;;22.83;13.27;;;;;;;;;;5077512;28;20040;-76
2023/09/03 04:20:33;;;;;;;15.07;11.30;;;;;;;;;;5068326;28;20044;-77
2023/09/03 04:23:19;;;;;;;15.10;11.10;;;;;;;;;;5076349;28;20036;-76
2023/09/03 04:26:05;;;;;;;16.88;9.63;;;;;;;;;;5082603;28;20032;-76
2023/09/03 04:28:54;;;;;;;15.13;8.85;;;;;;;;;;5068328;28;20040;-75
2023/09/03 04:31:40;;;;;;;8.48;7.63;;;;;;;;;;5068426;28;20049;-75
2023/09/03 04:34:26;;;;;;;12.60;8.98;;;;;;;;;;5068431;28;20044;-75
2023/09/03 04:37:11;;;;;;;16.75;10.63;;;;;;;;;;5068157;28;20036;-75
2023/09/03 04:39:57;;;;;;;33.35;19.80;;;;;;;;;;5068187;28;20385;-75
2023/09/03 04:42:42;;;;;;;18.70;12.75;;;;;;;;;;5068376;28;20493;-76
2023/09/03 04:45:28;;;;;;;10.68;8.18;;;;;;;;;;5068295;28;20044;-76
2023/09/03 04:48:15;;;;;;;11.90;8.73;;;;;;;;;;5067860;28;20048;-76
2023/09/03 04:51:04;;;;;;;13.23;9.25;;;;;;;;;;5076091;28;20032;-76
2023/09/03 04:53:50;;;;;;;10.70;8.25;;;;;;;;;;5068206;28;20041;-76
2023/09/03 04:56:36;;;;;;;11.90;8.90;;;;;;;;;;5076345;28;20405;-76
2023/09/03 04:59:22;;;;;;;11.57;8.88;;;;;;;;;;5053876;28;20486;-76
2023/09/03 05:02:07;;;;;;;12.15;7.93;;;;;;;;;;5067561;28;20048;-76
2023/09/03 05:04:53;;;;;;;9.43;7.30;;;;;;;;;;5067753;28;20044;-76
2023/09/03 05:07:38;;;;;;;9.82;7.20;;;;;;;;;;5067860;28;20048;-76
2023/09/03 05:10:24;;;;;;;9.95;6.80;;;;;;;;;;5075711;28;20045;-76
2023/09/03 05:13:10;;;;;;;11.73;7.43;;;;;;;;;;5064100;28;20045;-76
2023/09/03 05:15:55;;;;;;;8.45;6.50;;;;;;;;;;5066879;28;20044;-75
2023/09/03 05:18:41;;;;;;;7.47;6.68;;;;;;;;;;5067413;28;20397;-75
2023/09/03 05:21:26;;;;;;;13.07;9.20;;;;;;;;;;5067457;28;20486;-75
2023/09/03 05:24:11;;;;;;;9.55;6.72;;;;;;;;;;5067712;28;20037;-75
2023/09/03 05:26:57;;;;;;;11.23;6.80;;;;;;;;;;5067649;28;20393;-75
2023/09/03 05:29:42;;;;;;;8.45;7.30;;;;;;;;;;5067837;28;20052;-75
2023/09/03 05:32:28;;;;;;;9.93;6.80;;;;;;;;;;5066780;28;20040;-76
2023/09/03 05:35:14;;;;;;;9.82;6.45;;;;;;;;;;5075609;28;20048;-76
2023/09/03 05:37:59;;;;;;;11.20;8.15;;;;;;;;;;5077316;28;20036;-76
2023/09/03 05:40:45;;;;;;;12.52;8.35;;;;;;;;;;5068377;28;20044;-75
2023/09/03 05:43:30;;;;;;;11.77;8.55;;;;;;;;;;5068377;28;20125;-75
2023/09/03 05:46:16;;;;;;;11.68;8.43;;;;;;;;;;5067556;28;20040;-75
2023/09/03 05:49:02;;;;;;;11.98;9.18;;;;;;;;;;5076730;28;20048;-77
2023/09/03 05:51:47;;;;;;;13.25;9.23;;;;;;;;;;5067573;28;20040;-74
2023/09/03 05:54:33;;;;;;;14.73;9.30;;;;;;;;;;5068657;28;20036;-74
2023/09/03 05:57:18;;;;;;;12.88;8.90;;;;;;;;;;5067193;28;20393;-74
2023/09/03 06:00:05;;;;;;;14.35;9.80;;;;;;;;;;5067277;28;20044;-76
2023/09/03 06:02:51;;;;;;;14.20;9.70;;;;;;;;;;5075183;28;20040;-76
2023/09/03 06:05:38;;;;;;;16.02;9.77;;;;;;;;;;5066334;28;20397;-75
2023/09/03 06:08:23;;;;;;;11.95;8.73;;;;;;;;;;5081515;28;20074;-75
2023/09/03 06:11:16;;;;;;;11.18;9.05;;;;;;;;;;5074787;28;20044;-75
2023/09/03 06:14:01;;;;;;;12.38;8.95;;;;;;;;;;5073548;28;20052;-75
2023/09/03 06:16:46;;;;;;;11.85;8.75;;;;;;;;;;5081444;28;20048;-76
2023/09/03 06:19:32;;;;;;;10.77;8.52;;;;;;;;;;5074320;28;20041;-75
2023/09/03 06:22:18;;;;;;;12.77;8.65;;;;;;;;;;5074687;28;20481;-76
2023/09/03 06:25:04;;;;;;;12.20;9.75;;;;;;;;;;5074805;28;20040;-75
2023/09/03 06:27:50;;;;;;;14.00;10.25;;;;;;;;;;5073229;28;20052;-75
2023/09/03 06:30:36;;;;;;;13.77;8.93;;;;;;;;;;5073874;28;20393;-75
2023/09/03 06:33:21;;;;;;;9.80;8.73;;;;;;;;;;5074143;28;20044;-75
2023/09/03 06:36:07;;;;;;;12.70;9.93;;;;;;;;;;5080993;28;20040;-75
2023/09/03 06:38:53;;;;;;;12.52;9.77;;;;;;;;;;5080866;28;20045;-77
2023/09/03 06:41:39;;;;;;;15.88;9.75;;;;;;;;;;5073846;28;20053;-76
2023/09/03 06:44:24;;;;;;;15.40;10.23;;;;;;;;;;5074334;28;20044;-76
2023/09/03 06:47:09;;;;;;;14.13;11.23;;;;;;;;;;5065455;28;20036;-76
2023/09/03 06:49:54;;;;;;;17.55;11.27;;;;;;;;;;5074219;28;20041;-75
2023/09/03 06:52:40;;;;;;;13.00;10.57;;;;;;;;;;5073744;28;20044;-75
2023/09/03 06:55:26;;;;;;;20.73;10.52;;;;;;;;;;5073942;28;20045;-75
2023/09/03 06:58:11;;;;;;;14.40;9.57;;;;;;;;;;5073838;28;20041;-74
2023/09/03 07:00:57;;;;;;;12.98;9.27;;;;;;;;;;5073918;28;20053;-76
2023/09/03 07:03:42;;;;;;;14.27;9.10;;;;;;;;;;5073531;28;20036;-74
2023/09/03 07:06:28;;;;;;;12.88;8.27;;;;;;;;;;5072773;28;20044;-74
2023/09/03 07:09:13;;;;;;;13.05;8.73;;;;;;;;;;5080301;28;20045;-75
2023/09/03 07:12:00;;;;;;;13.27;8.25;;;;;;;;;;5073676;28;20036;-75
2023/09/03 07:14:46;;;;;;;10.40;7.93;;;;;;;;;;5074125;28;20040;-74
2023/09/03 07:17:31;;;;;;;10.65;7.25;;;;;;;;;;5073570;28;20037;-76
2023/09/03 07:20:16;;;;;;;17.85;7.95;;;;;;;;;;5073114;28;20040;-74
2023/09/03 07:23:01;;;;;;;8.20;6.90;;;;;;;;;;5073457;28;20037;-75
2023/09/03 07:25:47;;;;;;;9.70;7.55;;;;;;;;;;5073728;28;20048;-75
2023/09/03 07:28:33;;;;;;;13.50;7.35;;;;;;;;;;5073561;28;20128;-76
2023/09/03 07:31:18;;;;;;;9.45;6.80;;;;;;;;;;5073301;28;20041;-77
2023/09/03 07:34:04;;;;;;;9.20;7.55;;;;;;;;;;5058157;28;20478;-76
2023/09/03 07:36:49;;;;;;;12.35;6.78;;;;;;;;;;5074871;28;20052;-76
2023/09/03 07:39:35;;;;;;;9.38;7.47;;;;;;;;;;5085688;28;20052;-74
2023/09/03 07:42:21;;;;;;;10.50;7.10;;;;;;;;;;5086939;28;20044;-74
2023/09/03 07:45:06;;;;;;;8.10;6.97;;;;;;;;;;5080190;28;20049;-75
2023/09/03 07:47:53;;;;;;;8.73;6.88;;;;;;;;;;5079598;28;20048;-76
2023/09/03 07:50:38;;;;;;;8.95;6.78;;;;;;;;;;5080142;28;20048;-77
2023/09/03 07:53:24;;;;;;;11.68;7.22;;;;;;;;;;5080229;28;20401;-76
2023/09/03 07:56:09;;;;;;;7.43;6.43;;;;;;;;;;5079581;28;20045;-78
2023/09/03 07:58:55;;;;;;;8.55;6.75;;;;;;;;;;5071433;28;20049;-77
2023/09/03 08:01:40;;;;;;;10.63;6.50;;;;;;;;;;5079846;28;20429;-77
2023/09/03 08:04:25;;;;;;;12.00;7.00;;;;;;;;;;5086584;28;20041;-76
2023/09/03 08:07:11;;;;;;;6.75;6.05;;;;;;;;;;5086438;28;20040;-76
2023/09/03 08:09:56;;;;;;;8.30;6.53;;;;;;;;;;5079444;28;20064;-76
2023/09/03 08:12:42;;;;;;;9.82;7.28;;;;;;;;;;5079353;28;20044;-76
2023/09/03 08:15:28;;;;;;;9.40;6.97;;;;;;;;;;5079666;28;20041;-76
2023/09/03 08:18:15;;;;;;;7.93;6.40;;;;;;;;;;5079657;28;20044;-76
2023/09/03 08:21:00;;;;;;;20.55;15.70;;;;;;;;;;5079188;28;20484;-75
2023/09/03 08:23:45;;;;;;;10.20;7.07;;;;;;;;;;5086284;28;20040;-76
2023/09/03 08:26:31;;;;;;;36.38;27.92;;;;;;;;;;5079114;28;20049;-76
2023/09/03 08:29:16;;;;;;;9.32;6.70;;;;;;;;;;5086165;28;20044;-74
2023/09/03 08:32:02;;;;;;;8.02;6.78;;;;;;;;;;5064803;28;20490;-75
2023/09/03 08:34:47;;;;;;;9.68;6.90;;;;;;;;;;5079650;28;20048;-75
2023/09/03 08:37:33;;;;;;;14.10;7.47;;;;;;;;;;5079746;28;20501;-76
2023/09/03 08:40:20;;;;;;;12.02;6.88;;;;;;;;;;5079499;28;20048;-75
2023/09/03 08:43:07;;;;;;;15.48;10.35;;;;;;;;;;5080145;28;20040;-74
2023/09/03 08:45:59;;;;;;;8.07;6.75;;;;;;;;;;5081090;28;20044;-74
2023/09/03 08:48:47;;;;;;;10.25;6.68;;;;;;;;;;5087306;28;20049;-74
2023/09/03 08:51:33;;;;;;;7.15;6.45;;;;;;;;;;5082344;28;20044;-75
2023/09/03 08:54:19;;;;;;;9.23;6.93;;;;;;;;;;5076161;28;20048;-75
2023/09/03 08:57:05;;;;;;;10.35;6.55;;;;;;;;;;5075700;28;20053;-75
2023/09/03 08:59:51;;;;;;;8.65;6.57;;;;;;;;;;5074453;28;20049;-75
2023/09/03 09:02:40;;;;;;;9.50;6.90;;;;;;;;;;5075340;28;20049;-75
2023/09/03 09:05:26;;;;;;;9.52;7.28;;;;;;;;;;5075792;28;20041;-75
2023/09/03 09:08:13;;;;;;;12.15;6.63;;;;;;;;;;5067777;28;20391;-75
2023/09/03 09:11:04;;;;;;;9.57;6.47;;;;;;;;;;5081407;28;20399;-74
2023/09/03 09:13:56;;;;;;;9.43;6.57;;;;;;;;;;5075621;28;20040;-76
2023/09/03 09:16:41;;;;;;;9.60;7.03;;;;;;;;;;5076240;28;20045;-76
2023/09/03 09:19:27;;;;;;;8.23;6.75;;;;;;;;;;5075576;28;20049;-77
2023/09/03 09:22:12;;;;;;;10.07;7.13;;;;;;;;;;5075206;28;20044;-77
2023/09/03 09:24:58;;;;;;;8.23;6.18;;;;;;;;;;5082015;28;20053;-76
2023/09/03 09:27:44;;;;;;;6.93;5.80;;;;;;;;;;5074581;28;20052;-76
2023/09/03 09:30:29;;;;;;;7.95;5.50;;;;;;;;;;5082707;28;20037;-76
2023/09/03 09:33:15;;;;;;;8.82;5.13;;;;;;;;;;5075135;28;20041;-76
2023/09/03 09:36:13;;;;;;;6.65;5.43;;;;;;;;;;5082182;28;20390;-76
2023/09/03 09:39:08;;;;;;;8.13;5.82;;;;;;;;;;5082136;28;20473;-76
2023/09/03 09:42:12;;;;;;;9.73;5.07;;;;;;;;;;5075043;28;20398;-76
2023/09/03 09:45:01;;;;;;;5.88;5.28;;;;;;;;;;5060011;28;20048;-72
2023/09/03 09:47:47;;;;;;;7.28;4.95;;;;;;;;;;5074742;28;20041;-74
2023/09/03 09:50:34;;;;;;;7.43;5.00;;;;;;;;;;5067076;28;20040;-74
2023/09/03 09:53:24;;;;;;;7.72;4.78;;;;;;;;;;5075435;28;20041;-75
2023/09/03 09:56:12;;;;;;;6.60;4.55;;;;;;;;;;5074646;28;20048;-76
2023/09/03 09:58:58;;;;;;;4.15;3.72;;;;;;;;;;5074756;28;20044;-75
2023/09/03 10:01:46;;;;;;;5.82;4.32;;;;;;;;;;5081346;28;20045;-76
2023/09/03 10:04:31;;;;;;;6.47;3.70;;;;;;;;;;5081218;28;20056;-74
2023/09/03 10:07:17;;;;;;;4.97;3.67;;;;;;;;;;5074809;28;20044;-77
2023/09/03 10:10:05;;;;;;;5.43;3.35;;;;;;;;;;5074680;28;20485;-76
2023/09/03 10:12:50;;;;;;;6.55;3.60;;;;;;;;;;5074471;28;20056;-75
2023/09/03 10:15:38;;;;;;;5.20;3.33;;;;;;;;;;5074470;28;20052;-76
2023/09/03 10:18:26;;;;;;;5.15;3.30;;;;;;;;;;5074290;28;20398;-76
2023/09/03 10:21:18;;;;;;;5.47;3.30;;;;;;;;;;5074231;28;20044;-76
2023/09/03 10:24:05;;;;;;;5.25;3.28;;;;;;;;;;5073909;28;20036;-76
2023/09/03 10:26:56;;;;;;;5.03;3.40;;;;;;;;;;5081035;28;20486;-74
2023/09/03 10:29:44;;;;;;;5.35;3.45;;;;;;;;;;5074417;28;20048;-73
2023/09/03 10:32:32;;;;;;;4.55;3.47;;;;;;;;;;5074591;28;20036;-74
2023/09/03 10:35:17;;;;;;;5.63;3.70;;;;;;;;;;5073922;28;20044;-73
2023/09/03 10:38:03;;;;;;;4.47;3.33;;;;;;;;;;5073824;28;20040;-72
2023/09/03 10:40:49;;;;;;;3.72;3.33;;;;;;;;;;5072591;28;20045;-74
2023/09/03 10:43:34;;;;;;;5.10;3.22;;;;;;;;;;5073952;28;20036;-73
2023/09/03 10:46:27;;;;;;;7.95;3.38;;;;;;;;;;5074174;28;20048;-73
2023/09/03 10:49:13;;;;;;;4.53;3.30;;;;;;;;;;5079890;28;20044;-74
2023/09/03 10:51:58;;;;;;;4.22;3.45;;;;;;;;;;5059518;28;20044;-75
2023/09/03 10:54:44;;;;;;;6.47;3.15;;;;;;;;;;5073686;28;20044;-73
2023/09/03 10:57:31;;;;;;;4.03;3.50;;;;;;;;;;5073645;28;20037;-73
2023/09/03 11:00:21;;;;;;;5.75;3.75;;;;;;;;;;5073402;28;20041;-74
2023/09/03 11:03:17;;;;;;;12.02;4.13;;;;;;;;;;5068348;28;20489;-75
2023/09/03 11:06:21;;;;;;;3.88;3.45;;;;;;;;;;5073544;28;20493;-74
2023/09/03 11:09:06;;;;;;;4.85;3.80;;;;;;;;;;5065125;28;20052;-74
2023/09/03 11:12:00;;;;;;;7.18;3.80;;;;;;;;;;5073582;28;20044;-74
2023/09/03 11:14:50;;;;;;;;;;;;;;;;;;5073862;28;20040;-74
2023/09/03 11:17:35;;;;;;;5.85;3.83;;;;;;;;;;5080479;28;20346;-74
2023/09/03 11:20:36;;;;;;;4.82;3.70;;;;;;;;;;5064855;28;20044;-75
2023/09/03 11:23:22;;;;;;;5.75;3.70;;;;;;;;;;5072573;28;20044;-74
2023/09/03 11:26:13;;;;;;;6.00;3.75;;;;;;;;;;5073390;28;20041;-74
2023/09/03 11:29:01;;;;;;;4.40;3.80;;;;;;;;;;5073712;28;20040;-73
2023/09/03 11:31:48;;;;;;;5.30;4.05;;;;;;;;;;5065038;28;20052;-73
2023/09/03 11:34:34;;;;;;;6.70;3.83;;;;;;;;;;5072473;28;20049;-73
2023/09/03 11:37:19;;;;;;;4.97;3.88;;;;;;;;;;5072540;28;20099;-73
2023/09/03 11:40:05;;;;;;;4.93;3.95;;;;;;;;;;5072568;28;20044;-75
2023/09/03 11:42:50;;;;;;;4.88;4.10;;;;;;;;;;5073226;28;20040;-74
2023/09/03 11:45:36;;;;;;;4.38;3.78;;;;;;;;;;5080256;28;20389;-74
2023/09/03 11:48:29;;;;;;;7.85;4.30;;;;;;;;;;5080185;28;20040;-74
2023/09/03 11:51:28;;;;;;;5.85;4.40;;;;;;;;;;5073356;28;20052;-74
2023/09/03 11:54:22;;;;;;;6.47;3.90;;;;;;;;;;5073446;28;20037;-74
2023/09/03 11:57:11;;;;;;;5.65;4.32;;;;;;;;;;5073535;28;20070;-74
2023/09/03 11:59:57;;;;;;;5.10;4.60;;;;;;;;;;5072957;28;20041;-75
2023/09/03 12:02:43;;;;;;;6.13;4.70;;;;;;;;;;5073261;28;20040;-74
2023/09/03 12:05:28;;;;;;;8.50;4.45;;;;;;;;;;5072916;28;20045;-75
2023/09/03 12:08:14;;;;;;;5.25;4.03;;;;;;;;;;5079289;28;20040;-74
2023/09/03 12:10:59;;;;;;;4.95;3.90;;;;;;;;;;5073012;28;20052;-76
2023/09/03 12:13:45;;;;;;;5.25;4.28;;;;;;;;;;5071039;28;20040;-74
2023/09/03 12:16:44;;;;;;;6.28;4.43;;;;;;;;;;5072422;28;20389;-73
2023/09/03 12:19:39;;;;;;;5.65;4.00;;;;;;;;;;5072865;28;20041;-74
2023/09/03 12:22:24;;;;;;;6.88;4.15;;;;;;;;;;5072633;28;20045;-73
2023/09/03 12:25:09;;;;;;;5.10;3.80;;;;;;;;;;5074135;28;20041;-72
2023/09/03 12:27:54;;;;;;;4.03;3.63;;;;;;;;;;5076233;28;20052;-73
2023/09/03 12:30:56;;;;;;;8.25;4.00;;;;;;;;;;5076575;28;20048;-73
2023/09/03 12:33:47;;;;;;;13.90;3.88;;;;;;;;;;5076152;28;20041;-73
2023/09/03 12:36:32;;;;;;;5.25;4.00;;;;;;;;;;5067706;28;20041;-73
2023/09/03 12:39:28;;;;;;;3.92;3.47;;;;;;;;;;5083409;28;20048;-72
2023/09/03 12:42:13;;;;;;;5.60;3.35;;;;;;;;;;5083094;28;20040;-74
2023/09/03 12:44:59;;;;;;;5.53;3.88;;;;;;;;;;5061974;28;20048;-74
2023/09/03 12:47:45;;;;;;;5.10;3.72;;;;;;;;;;5076667;28;20044;-73
2023/09/03 12:50:30;;;;;;;8.52;3.58;;;;;;;;;;5076556;28;20040;-74
2023/09/03 12:53:15;;;;;;;4.00;3.58;;;;;;;;;;5076302;28;20037;-74
2023/09/03 12:56:00;;;;;;;5.85;3.90;;;;;;;;;;5076298;28;20044;-72
2023/09/03 12:58:47;;;;;;;5.35;3.78;;;;;;;;;;5076636;28;20044;-73
2023/09/03 13:01:38;;;;;;;5.57;3.47;;;;;;;;;;5075231;28;20037;-74
2023/09/03 13:04:24;;;;;;;6.80;4.10;;;;;;;;;;5076171;28;20044;-73
2023/09/03 13:07:10;;;;;;;6.32;3.58;;;;;;;;;;5082961;28;20048;-74
2023/09/03 13:09:55;;;;;;;4.63;3.30;;;;;;;;;;5076354;28;20048;-74
2023/09/03 13:12:41;;;;;;;5.05;3.53;;;;;;;;;;5075929;28;20045;-74
2023/09/03 13:15:26;;;;;;;4.63;3.53;;;;;;;;;;5076415;28;20052;-74
2023/09/03 13:18:13;;;;;;;3.60;3.00;;;;;;;;;;5076112;28;20044;-73
2023/09/03 13:20:59;;;;;;;5.15;3.35;;;;;;;;;;5075551;28;20049;-74
2023/09/03 13:23:44;;;;;;;5.63;3.03;;;;;;;;;;5075668;28;20041;-74
2023/09/03 13:26:30;;;;;;;7.40;3.30;;;;;;;;;;5075571;28;20040;-75
2023/09/03 13:29:15;;;;;;;4.97;3.60;;;;;;;;;;5075527;28;20393;-75
2023/09/03 13:32:02;;;;;;;3.70;3.30;;;;;;;;;;5075899;28;20485;-74
2023/09/03 13:34:48;;;;;;;4.13;3.40;;;;;;;;;;5075468;28;20044;-74
2023/09/03 13:37:33;;;;;;;3.42;3.13;;;;;;;;;;5074879;28;20049;-74
2023/09/03 13:40:19;;;;;;;4.57;3.42;;;;;;;;;;5075255;28;20052;-73
2023/09/03 13:43:04;;;;;;;5.25;3.25;;;;;;;;;;5070047;28;20417;-74
2023/09/03 13:45:58;;;;;;;5.10;3.08;;;;;;;;;;5075546;28;20056;-73
2023/09/03 13:48:44;;;;;;;9.90;3.50;;;;;;;;;;5082023;28;20413;-73
2023/09/03 13:51:29;;;;;;;5.65;2.90;;;;;;;;;;5075171;28;20045;-72
2023/09/03 13:54:14;;;;;;;3.92;3.00;;;;;;;;;;5074113;28;20386;-74
2023/09/03 13:57:00;;;;;;;4.60;3.00;;;;;;;;;;5073433;28;20049;-74
2023/09/03 13:59:46;;;;;;;3.40;2.80;;;;;;;;;;5075029;28;20478;-74
2023/09/03 14:02:31;;;;;;;4.70;2.72;;;;;;;;;;5082038;28;20044;-73
2023/09/03 14:05:19;;;;;;;4.95;3.35;;;;;;;;;;5074667;28;20044;-73
2023/09/03 14:08:06;;;;;;;6.35;3.38;;;;;;;;;;5069526;28;20044;-73
2023/09/03 14:10:57;;;;;;;6.15;3.28;;;;;;;;;;5074785;28;20032;-73
2023/09/03 14:13:43;;;;;;;5.65;3.10;;;;;;;;;;5073581;28;20053;-74
2023/09/03 14:16:29;;;;;;;4.18;3.20;;;;;;;;;;5074668;28;20485;-72
2023/09/03 14:19:15;;;;;;;6.40;3.50;;;;;;;;;;5074432;28;20477;-73
2023/09/03 14:22:05;;;;;;;6.30;4.15;;;;;;;;;;5074167;28;20048;-73
2023/09/03 14:24:50;;;;;;;5.85;4.05;;;;;;;;;;5074518;28;20044;-74
2023/09/03 14:27:35;;;;;;;6.32;3.53;;;;;;;;;;5059295;28;20052;-73
2023/09/03 14:30:21;;;;;;;8.93;4.43;;;;;;;;;;5074359;28;20044;-74
2023/09/03 14:33:07;;;;;;;6.97;4.60;;;;;;;;;;5074148;28;20036;-74
2023/09/03 14:35:52;;;;;;;4.82;3.70;;;;;;;;;;5074409;28;20049;-73
2023/09/03 14:38:38;;;;;;;5.32;3.85;;;;;;;;;;5074503;28;20040;-73
2023/09/03 14:41:25;;;;;;;7.40;3.70;;;;;;;;;;5073270;28;20045;-74
2023/09/03 14:44:10;;;;;;;4.95;3.42;;;;;;;;;;5080762;28;20045;-75
2023/09/03 14:46:56;;;;;;;5.35;3.65;;;;;;;;;;5073431;28;20037;-74
2023/09/03 14:49:43;;;;;;;6.03;3.72;;;;;;;;;;5081424;28;20037;-76
2023/09/03 14:52:28;;;;;;;5.68;3.60;;;;;;;;;;5074314;28;20041;-75
2023/09/03 14:55:14;;;;;;;6.45;4.13;;;;;;;;;;5080324;28;20037;-75
2023/09/03 14:57:59;;;;;;;8.75;4.30;;;;;;;;;;5081074;28;20045;-76
2023/09/03 15:00:46;;;;;;;8.00;4.55;;;;;;;;;;5073455;28;20048;-75
2023/09/03 15:03:31;;;;;;;6.63;4.57;;;;;;;;;;5073433;28;20044;-76
2023/09/03 15:06:17;;;;;;;7.80;4.50;;;;;;;;;;5073864;28;20036;-74
2023/09/03 15:09:02;;;;;;;6.82;4.32;;;;;;;;;;5073458;28;20462;-74
2023/09/03 15:11:48;;;;;;;6.82;4.15;;;;;;;;;;5080259;28;20405;-74
2023/09/03 15:14:33;;;;;;;5.53;4.43;;;;;;;;;;5053397;28;20048;-74
2023/09/03 15:17:19;;;;;;;6.35;4.00;;;;;;;;;;5053716;28;20049;-76
2023/09/03 15:20:06;;;;;;;6.85;4.15;;;;;;;;;;5053393;28;20386;-76
2023/09/03 15:22:52;;;;;;;10.52;5.10;;;;;;;;;;5053397;28;20045;-75
2023/09/03 15:25:40;;;;;;;9.27;4.63;;;;;;;;;;5060645;28;20052;-75
2023/09/03 15:28:26;;;;;;;7.10;4.93;;;;;;;;;;5060389;28;20052;-73
2023/09/03 15:31:11;;;;;;;11.48;5.53;;;;;;;;;;5053568;28;20057;-74
2023/09/03 15:33:57;;;;;;;9.00;5.13;;;;;;;;;;5053470;28;20049;-76
2023/09/03 15:36:42;;;;;;;9.68;5.32;;;;;;;;;;5060000;28;20045;-75
2023/09/03 15:39:28;;;;;;;8.55;5.20;;;;;;;;;;5053488;28;20045;-76
2023/09/03 15:42:13;;;;;;;9.13;5.55;;;;;;;;;;5053332;28;20041;-75
2023/09/03 15:44:58;;;;;;;12.95;5.85;;;;;;;;;;5059413;28;20402;-75
2023/09/03 15:47:44;;;;;;;17.67;9.43;;;;;;;;;;5044815;28;20052;-75
2023/09/03 15:50:30;;;;;;;11.60;7.78;;;;;;;;;;5059905;28;20045;-75
2023/09/03 15:53:16;;;;;;;20.50;6.90;;;;;;;;;;5053231;28;20045;-75
2023/09/03 15:56:02;;;;;;;7.30;5.32;;;;;;;;;;5053005;28;20037;-75
2023/09/03 15:58:47;;;;;;;7.90;5.38;;;;;;;;;;5053034;28;20037;-75
2023/09/03 16:01:32;;;;;;;9.85;5.88;;;;;;;;;;5057010;28;20041;-74
2023/09/03 16:04:19;;;;;;;14.10;5.15;;;;;;;;;;5063281;28;20053;-75
2023/09/03 16:07:04;;;;;;;12.30;5.05;;;;;;;;;;5055369;28;20048;-76
2023/09/03 16:09:50;;;;;;;6.78;5.10;;;;;;;;;;5055397;28;20049;-77
2023/09/03 16:12:36;;;;;;;9.48;5.70;;;;;;;;;;5065701;28;20045;-75
2023/09/03 16:15:21;;;;;;;13.43;8.50;;;;;;;;;;5068629;28;20045;-75
2023/09/03 16:18:07;;;;;;;14.45;6.43;;;;;;;;;;5083908;28;20048;-75
2023/09/03 16:20:52;;;;;;;13.82;6.40;;;;;;;;;;5076715;28;20398;-74
2023/09/03 16:23:38;;;;;;;12.07;5.90;;;;;;;;;;5077095;28;20040;-75
2023/09/03 16:26:24;;;;;;;18.88;5.68;;;;;;;;;;5076689;28;20048;-75
2023/09/03 16:29:09;;;;;;;16.05;6.05;;;;;;;;;;5077057;28;20056;-75
2023/09/03 16:31:55;;;;;;;13.60;5.45;;;;;;;;;;5068442;28;20045;-75